Time;durP1;ratioP1;P1;durP2;ratioP2;P2;SDS_P1;SDS_P2;PMS_P1;PMS_P2;Temp;Humidity;BMP_temperature;BMP_pressure;BME280_temperature;BME280_humidity;BME280_pressure;Samples;Min_cycle;Max_cycle;Signal;HPM_P1;HPM_P2
2021/08/08 00:01:00;;;;;;;11.88;6.07;;;;;;;20.35;88.60;97788.56;4966425;28;20065;-63
2021/08/08 00:03:26;;;;;;;12.82;6.97;;;;;;;20.25;89.18;97797.06;4990698;28;20587;-63
2021/08/08 00:05:52;;;;;;;9.40;6.45;;;;;;;20.17;88.73;97789.47;4980769;28;20058;-63
2021/08/08 00:08:18;;;;;;;11.52;7.22;;;;;;;20.32;88.64;97796.97;4979656;28;20034;-63
2021/08/08 00:10:44;;;;;;;12.23;6.43;;;;;;;20.43;88.31;97806.72;4980598;28;20038;-63
2021/08/08 00:13:09;;;;;;;11.15;6.20;;;;;;;20.27;88.14;97773.06;4976821;28;20038;-63
2021/08/08 00:15:35;;;;;;;14.38;7.30;;;;;;;20.44;88.82;97802.25;4982034;28;20481;-65
2021/08/08 00:18:02;;;;;;;11.75;6.32;;;;;;;20.38;88.61;97795.25;4975003;28;20038;-63
2021/08/08 00:20:29;;;;;;;11.95;6.10;;;;;;;20.49;88.50;97787.31;4989006;28;20033;-63
2021/08/08 00:22:54;;;;;;;10.23;6.10;;;;;;;20.50;87.59;97788.94;4980224;28;20023;-63
2021/08/08 00:25:19;;;;;;;10.48;6.15;;;;;;;20.03;88.54;97749.28;4981385;28;20041;-62
2021/08/08 00:27:45;;;;;;;10.88;6.20;;;;;;;20.11;89.47;97799.06;4982442;28;20109;-63
2021/08/08 00:30:10;;;;;;;11.35;6.47;;;;;;;19.84;89.11;97755.66;4980918;28;20738;-63
2021/08/08 00:32:36;;;;;;;9.52;5.88;;;;;;;20.04;88.80;97793.13;4983660;28;20089;-63
2021/08/08 00:35:01;;;;;;;9.52;6.25;;;;;;;20.07;88.76;97794.50;4980594;28;20026;-63
2021/08/08 00:37:27;;;;;;;11.15;6.10;;;;;;;20.15;87.71;97796.78;4976429;28;20504;-63
2021/08/08 00:39:52;;;;;;;10.02;5.97;;;;;;;20.04;87.90;97777.28;4959054;28;20038;-63
2021/08/08 00:42:18;;;;;;;10.40;6.10;;;;;;;20.34;87.45;97816.00;4978624;28;20027;-63
2021/08/08 00:44:43;;;;;;;12.02;6.10;;;;;;;19.94;87.56;97769.09;4974756;28;20536;-61
2021/08/08 00:47:10;;;;;;;11.63;5.90;;;;;;;19.80;89.45;97775.59;4982587;28;20022;-63
2021/08/08 00:49:35;;;;;;;10.00;5.80;;;;;;;20.12;88.51;97813.09;4977102;28;20113;-62
2021/08/08 00:52:00;;;;;;;10.00;5.38;;;;;;;19.88;87.34;97768.19;4976061;28;20561;-63
2021/08/08 00:54:26;;;;;;;8.35;5.22;;;;;;;20.15;87.07;97807.34;4974289;28;20031;-62
2021/08/08 00:56:51;;;;;;;9.05;5.57;;;;;;;20.20;86.42;97811.97;4980636;28;20027;-62
2021/08/08 00:59:17;;;;;;;10.45;5.80;;;;;;;20.15;87.36;97808.16;4976261;28;20039;-62
2021/08/08 01:01:44;;;;;;;9.93;5.88;;;;;;;20.22;87.71;97821.25;4980620;28;20034;-63
2021/08/08 01:04:13;;;;;;;11.40;6.10;;;;;;;20.02;88.04;97776.69;4978611;28;20023;-62
2021/08/08 01:06:51;;;;;;;9.27;5.20;;;;;;;20.28;87.59;97817.72;4992557;28;20027;-62
2021/08/08 01:09:17;;;;;;;10.50;5.60;;;;;;;20.30;86.48;97815.66;4979846;28;20045;-63
2021/08/08 01:11:43;;;;;;;11.10;5.60;;;;;;;20.17;87.42;97810.59;4978221;28;20085;-62
2021/08/08 01:14:08;;;;;;;13.80;5.82;;;;;;;20.23;87.43;97812.31;4964210;28;20583;-62
2021/08/08 01:16:35;;;;;;;12.57;5.47;;;;;;;20.24;86.61;97811.25;4975708;28;20027;-63
2021/08/08 01:19:01;;;;;;;10.27;5.55;;;;;;;20.26;86.61;97814.50;4980836;28;20233;-63
2021/08/08 01:21:30;;;;;;;10.07;6.43;;;;;;;20.27;87.46;97805.53;4973911;28;20065;-63
2021/08/08 01:23:58;;;;;;;10.82;5.72;;;;;;;20.22;87.07;97794.06;4975968;28;20045;-63
2021/08/08 01:26:25;;;;;;;9.73;5.03;;;;;;;20.23;87.28;97804.41;4986740;28;20057;-63
2021/08/08 01:28:53;;;;;;;9.60;5.25;;;;;;;20.01;87.83;97795.41;4975567;28;20022;-63
2021/08/08 01:31:18;;;;;;;10.63;5.40;;;;;;;20.04;87.71;97795.75;4976927;28;20050;-63
2021/08/08 01:33:43;;;;;;;10.00;4.97;;;;;;;19.87;87.70;97792.13;4976333;28;20061;-62
2021/08/08 01:36:09;;;;;;;7.85;5.32;;;;;;;19.66;87.67;97746.75;4981633;28;20052;-63
2021/08/08 01:38:36;;;;;;;9.35;4.97;;;;;;;19.74;88.33;97749.09;4978434;28;20038;-63
2021/08/08 01:41:02;;;;;;;9.00;5.15;;;;;;;19.99;87.19;97785.06;4971552;28;20104;-62
2021/08/08 01:43:32;;;;;;;10.57;5.85;;;;;;;20.04;87.37;97781.75;4980175;28;20737;-64
2021/08/08 01:46:05;;;;;;;8.43;4.97;;;;;;;20.07;86.59;97778.66;4977824;28;20031;-63
2021/08/08 01:48:32;;;;;;;8.93;5.05;;;;;;;20.14;86.59;97780.16;4980421;28;20026;-63
2021/08/08 01:51:00;;;;;;;11.80;5.28;;;;;;;19.89;87.67;97726.75;4977452;28;20109;-62
2021/08/08 01:53:27;;;;;;;10.30;5.53;;;;;;;20.16;87.98;97777.31;4957276;28;20120;-63
2021/08/08 01:55:53;;;;;;;9.95;5.30;;;;;;;20.03;88.04;97775.66;4984985;28;20037;-63
2021/08/08 01:58:18;;;;;;;10.68;5.65;;;;;;;19.93;88.07;97783.31;4974501;28;20030;-63
2021/08/08 02:00:48;;;;;;;8.45;5.35;;;;;;;19.89;88.61;97779.53;4980042;28;20035;-63
2021/08/08 02:03:14;;;;;;;11.98;5.45;;;;;;;19.85;88.47;97778.38;4978820;28;20579;-63
2021/08/08 02:05:40;;;;;;;9.63;4.80;;;;;;;19.84;88.11;97768.84;4978459;28;20038;-62
2021/08/08 02:08:05;;;;;;;10.75;5.03;;;;;;;19.91;87.32;97785.38;4979420;28;20030;-63
2021/08/08 02:10:30;;;;;;;10.05;5.43;;;;;;;20.00;86.75;97788.50;4976204;28;20030;-62
2021/08/08 02:12:56;;;;;;;7.60;4.85;;;;;;;19.74;86.50;97754.34;4976016;28;20031;-63
2021/08/08 02:15:21;;;;;;;8.43;5.38;;;;;;;19.95;87.50;97774.16;4973735;28;20034;-63
2021/08/08 02:17:47;;;;;;;11.15;4.55;;;;;;;20.06;85.80;97790.22;4973791;28;20452;-63
2021/08/08 02:20:20;;;;;;;7.45;4.40;;;;;;;20.10;85.48;97804.59;4975024;28;20041;-63
2021/08/08 02:22:46;;;;;;;9.00;4.53;;;;;;;19.91;85.57;97804.63;4978031;28;20520;-63
2021/08/08 02:25:12;;;;;;;8.25;4.40;;;;;;;19.55;86.59;97779.94;4971741;28;20030;-63
2021/08/08 02:27:39;;;;;;;7.10;4.38;;;;;;;19.81;86.98;97814.16;4997930;28;20026;-63
2021/08/08 02:30:06;;;;;;;8.45;4.40;;;;;;;19.55;86.63;97772.03;4977814;28;20022;-62
2021/08/08 02:32:32;;;;;;;11.07;4.68;;;;;;;19.71;87.35;97818.09;4978759;28;20030;-62
2021/08/08 02:34:57;;;;;;;8.13;4.63;;;;;;;19.71;87.76;97825.19;4979791;28;20497;-62
2021/08/08 02:37:23;;;;;;;8.30;4.80;;;;;;;19.74;87.85;97827.41;4980253;28;20114;-62
2021/08/08 02:39:48;;;;;;;10.32;4.80;;;;;;;19.68;87.37;97823.00;4980950;28;20126;-62
2021/08/08 02:42:13;;;;;;;10.32;4.90;;;;;;;19.66;87.68;97835.59;4978350;28;20459;-62
2021/08/08 02:44:39;;;;;;;7.85;4.80;;;;;;;19.66;87.86;97827.66;4980945;28;20058;-63
2021/08/08 02:47:04;;;;;;;8.98;4.85;;;;;;;19.30;87.76;97782.69;4973866;28;20039;-62
2021/08/08 02:49:30;;;;;;;15.95;5.85;;;;;;;19.70;87.30;97839.41;4971995;28;20030;-62
2021/08/08 02:51:56;;;;;;;9.98;4.45;;;;;;;19.78;86.85;97841.75;4974107;28;20019;-62
2021/08/08 02:54:22;;;;;;;9.45;4.93;;;;;;;19.59;88.03;97835.69;4976824;28;20022;-63
2021/08/08 02:56:47;;;;;;;11.50;4.97;;;;;;;19.58;88.20;97837.50;4980528;28;20081;-63
2021/08/08 02:59:13;;;;;;;10.48;4.75;;;;;;;19.55;87.63;97827.41;4978043;28;20053;-62
2021/08/08 03:01:38;;;;;;;7.47;4.72;;;;;;;19.43;87.95;97816.00;4979326;28;20074;-62
2021/08/08 03:04:05;;;;;;;9.98;4.85;;;;;;;19.66;87.32;97831.13;4980056;28;20105;-62
2021/08/08 03:06:30;;;;;;;9.80;4.38;;;;;;;19.58;86.89;97818.25;4978557;28;20027;-62
2021/08/08 03:08:55;;;;;;;9.13;4.65;;;;;;;19.17;87.33;97752.03;4977751;28;20034;-62
2021/08/08 03:11:21;;;;;;;9.38;4.88;;;;;;;19.68;87.71;97823.00;4981045;28;20067;-65
2021/08/08 03:13:46;;;;;;;8.70;4.80;;;;;;;19.63;87.63;97826.28;4983860;28;20034;-63
2021/08/08 03:16:12;;;;;;;8.90;4.95;;;;;;;19.61;87.77;97819.66;4979453;28;20358;-62
2021/08/08 03:18:37;;;;;;;8.50;5.13;;;;;;;19.37;88.23;97793.97;4978254;28;20038;-63
2021/08/08 03:21:04;;;;;;;12.23;5.22;;;;;;;19.58;88.48;97831.41;4984369;28;20030;-63
2021/08/08 03:23:29;;;;;;;7.78;4.80;;;;;;;19.39;87.73;97791.09;4979181;28;20378;-63
2021/08/08 03:25:55;;;;;;;10.38;5.25;;;;;;;19.76;87.71;97831.41;4976779;28;20037;-62
2021/08/08 03:28:20;;;;;;;7.70;5.18;;;;;;;19.51;87.69;97791.97;4984574;28;20098;-63
2021/08/08 03:30:46;;;;;;;9.00;5.32;;;;;;;19.78;88.43;97839.13;4981837;28;20325;-60
2021/08/08 03:33:11;;;;;;;8.27;5.53;;;;;;;19.50;88.87;97798.25;4984859;28;20046;-62
2021/08/08 03:35:37;;;;;;;7.88;5.20;;;;;;;19.63;89.33;97834.22;4976388;28;20088;-62
2021/08/08 03:38:04;;;;;;;10.20;5.43;;;;;;;19.69;88.32;97825.41;4981359;28;20121;-63
2021/08/08 03:40:29;;;;;;;9.25;4.90;;;;;;;19.83;88.68;97846.38;4979220;28;20080;-63
2021/08/08 03:42:55;;;;;;;12.70;5.00;;;;;;;19.94;87.76;97843.78;4977907;28;20034;-62
2021/08/08 03:45:20;;;;;;;9.48;5.30;;;;;;;19.90;88.04;97842.63;4983983;28;20022;-62
2021/08/08 03:47:45;;;;;;;8.73;4.82;;;;;;;19.94;88.45;97851.69;4978885;28;20040;-61
2021/08/08 03:50:11;;;;;;;9.82;5.10;;;;;;;19.72;87.91;97809.13;4981764;28;20037;-62
2021/08/08 03:52:37;;;;;;;8.88;4.95;;;;;;;20.00;87.58;97842.06;4978895;28;20833;-64
2021/08/08 03:55:04;;;;;;;10.73;4.93;;;;;;;20.11;87.58;97851.84;4983827;28;20452;-61
2021/08/08 03:57:29;;;;;;;9.00;5.05;;;;;;;20.11;87.38;97859.78;4980772;28;20022;-62
2021/08/08 03:59:54;;;;;;;10.52;4.68;;;;;;;19.96;87.44;97860.19;4978253;28;20046;-62
2021/08/08 04:02:20;;;;;;;7.65;4.63;;;;;;;19.74;88.11;97861.69;4977151;28;20105;-61
2021/08/08 04:04:45;;;;;;;9.80;5.07;;;;;;;19.75;88.30;97861.47;4980441;28;20034;-63
2021/08/08 04:07:11;;;;;;;10.18;5.55;;;;;;;19.70;88.68;97866.56;4976403;28;20058;-61
2021/08/08 04:09:36;;;;;;;9.07;5.40;;;;;;;19.68;89.08;97873.91;4979787;28;20041;-62
2021/08/08 04:12:05;;;;;;;8.93;5.18;;;;;;;19.69;88.55;97882.63;4980402;28;20309;-62
2021/08/08 04:14:31;;;;;;;9.77;5.45;;;;;;;19.57;89.34;97882.56;4974572;28;20236;-64
2021/08/08 04:16:56;;;;;;;10.05;4.88;;;;;;;19.60;88.65;97884.75;4972269;28;20687;-61
2021/08/08 04:19:21;;;;;;;9.55;4.88;;;;;;;19.60;88.60;97868.91;4983679;28;20041;-63
2021/08/08 04:21:47;;;;;;;7.63;5.18;;;;;;;19.37;88.49;97841.41;4974545;28;20035;-62
2021/08/08 04:24:12;;;;;;;9.15;4.90;;;;;;;19.64;88.06;97893.84;4983362;28;20057;-61
2021/08/08 04:26:37;;;;;;;8.23;4.82;;;;;;;19.67;87.21;97888.09;4984535;28;20034;-62
2021/08/08 04:29:03;;;;;;;9.80;4.47;;;;;;;19.38;87.72;97840.38;4983919;28;20457;-62
2021/08/08 04:31:28;;;;;;;10.07;4.95;;;;;;;19.62;87.63;97887.16;4981837;28;20113;-62
2021/08/08 04:33:54;;;;;;;9.60;4.78;;;;;;;19.59;87.49;97891.84;4981419;28;20042;-62
2021/08/08 04:36:19;;;;;;;8.20;5.32;;;;;;;19.57;87.66;97886.00;4980028;28;20113;-62
2021/08/08 04:38:44;;;;;;;10.00;5.45;;;;;;;19.20;88.05;97832.47;4978236;28;20084;-62
2021/08/08 04:41:10;;;;;;;9.75;5.25;;;;;;;19.17;87.98;97843.44;4972174;28;20097;-62
2021/08/08 04:43:36;;;;;;;9.50;4.93;;;;;;;19.27;88.31;97845.56;4972453;28;20126;-62
2021/08/08 04:46:01;;;;;;;8.05;4.88;;;;;;;19.43;87.97;97889.78;4980962;28;20145;-62
2021/08/08 04:48:27;;;;;;;9.52;5.00;;;;;;;19.46;88.08;97886.72;4983152;28;20117;-62
2021/08/08 04:50:52;;;;;;;9.05;4.95;;;;;;;19.50;88.42;97887.09;4981761;28;20030;-62
2021/08/08 04:53:18;;;;;;;8.70;5.40;;;;;;;19.49;88.64;97893.38;4975678;28;20026;-62
2021/08/08 04:55:45;;;;;;;10.20;5.40;;;;;;;19.19;88.46;97854.56;4979513;28;20038;-62
2021/08/08 04:58:10;;;;;;;11.20;5.13;;;;;;;19.50;88.34;97900.28;4982925;28;20432;-63
2021/08/08 05:00:36;;;;;;;11.40;5.40;;;;;;;19.49;88.73;97898.66;4980323;28;20038;-62
2021/08/08 05:03:02;;;;;;;8.43;5.63;;;;;;;19.47;88.50;97898.06;4982313;28;20404;-61
2021/08/08 05:05:28;;;;;;;7.90;4.68;;;;;;;19.52;88.47;97906.13;4977587;28;20049;-63
2021/08/08 05:07:53;;;;;;;9.13;5.35;;;;;;;19.40;88.93;97892.88;4982793;28;20027;-63
2021/08/08 05:10:20;;;;;;;7.97;5.10;;;;;;;19.55;88.65;97905.72;4979702;28;20499;-62
2021/08/08 05:12:45;;;;;;;8.15;5.40;;;;;;;19.56;88.53;97908.09;4978802;28;20122;-63
2021/08/08 05:15:11;;;;;;;8.20;6.00;;;;;;;19.55;88.54;97917.06;4981725;28;20133;-62
2021/08/08 05:17:37;;;;;;;8.90;5.63;;;;;;;19.53;88.45;97915.66;4975961;28;20023;-62
2021/08/08 05:20:04;;;;;;;8.10;5.25;;;;;;;19.40;88.16;97900.78;4977314;28;20121;-62
2021/08/08 05:22:30;;;;;;;8.70;5.80;;;;;;;19.20;87.76;97867.53;4993725;28;20118;-63
2021/08/08 05:24:55;;;;;;;8.07;5.10;;;;;;;19.40;87.87;97913.94;4981851;28;20588;-62
2021/08/08 05:27:20;;;;;;;9.65;5.35;;;;;;;19.19;87.93;97876.44;4978347;28;20492;-62
2021/08/08 05:29:46;;;;;;;8.80;4.72;;;;;;;19.40;87.51;97924.50;4981724;28;20092;-63
2021/08/08 05:32:11;;;;;;;7.20;4.40;;;;;;;19.15;87.31;97882.41;4977698;28;20112;-63
2021/08/08 05:34:37;;;;;;;8.98;5.00;;;;;;;19.53;87.01;97921.75;4979843;28;20175;-63
2021/08/08 05:37:02;;;;;;;8.52;4.63;;;;;;;19.47;86.67;97916.53;4981443;28;20018;-62
2021/08/08 05:39:28;;;;;;;11.00;5.35;;;;;;;19.32;87.44;97922.94;4978010;28;20488;-63
2021/08/08 05:41:53;;;;;;;12.10;7.70;;;;;;;19.43;87.09;97926.69;4975908;28;20090;-63
2021/08/08 05:44:19;;;;;;;11.40;6.00;;;;;;;19.55;86.74;97930.22;4973534;28;20046;-63
2021/08/08 05:46:44;;;;;;;9.15;5.18;;;;;;;19.54;86.68;97933.88;4983664;28;20114;-63
2021/08/08 05:49:09;;;;;;;8.82;4.90;;;;;;;19.53;86.27;97928.81;4978400;28;20089;-63
2021/08/08 05:51:42;;;;;;;7.50;5.03;;;;;;;19.55;86.94;97929.44;4979746;28;20046;-62
2021/08/08 05:54:08;;;;;;;8.52;5.03;;;;;;;19.24;86.76;97899.53;4981868;28;20404;-63
2021/08/08 05:56:33;;;;;;;10.70;5.22;;;;;;;19.31;86.79;97899.44;4972587;28;20538;-63
2021/08/08 05:58:58;;;;;;;10.20;5.45;;;;;;;19.26;87.09;97894.84;4975093;28;20061;-63
2021/08/08 06:01:24;;;;;;;8.40;5.30;;;;;;;19.53;87.29;97944.66;4982678;28;20038;-62
2021/08/08 06:03:49;;;;;;;8.52;5.97;;;;;;;19.54;87.10;97938.34;4978359;28;20112;-63
2021/08/08 06:06:15;;;;;;;8.73;5.40;;;;;;;19.55;87.05;97946.06;4979670;28;20323;-62
2021/08/08 06:08:40;;;;;;;9.20;5.35;;;;;;;19.55;87.52;97947.91;4974894;28;20038;-63
2021/08/08 06:11:06;;;;;;;9.48;5.22;;;;;;;19.33;87.56;97897.41;4977238;28;20679;-63
2021/08/08 06:13:31;;;;;;;13.88;5.57;;;;;;;19.62;87.71;97945.97;4974764;28;20500;-63
2021/08/08 06:15:57;;;;;;;7.97;4.60;;;;;;;19.65;86.63;97947.38;4977108;28;20129;-62
2021/08/08 06:18:22;;;;;;;7.47;4.72;;;;;;;19.66;87.27;97955.06;4973252;28;20150;-62
2021/08/08 06:20:47;;;;;;;9.43;5.00;;;;;;;19.45;86.65;97911.47;4977922;28;20037;-63
2021/08/08 06:23:13;;;;;;;10.30;5.07;;;;;;;19.77;86.27;97954.38;4966382;28;20646;-63
2021/08/08 06:25:38;;;;;;;7.90;4.57;;;;;;;19.76;86.74;97963.28;4973412;28;20034;-62
2021/08/08 06:28:04;;;;;;;10.85;5.07;;;;;;;19.61;86.62;97949.66;4978395;28;20492;-63
2021/08/08 06:30:30;;;;;;;8.25;4.63;;;;;;;19.55;86.28;97927.59;4977188;28;20051;-63
2021/08/08 06:32:55;;;;;;;10.07;4.57;;;;;;;19.84;86.30;97962.22;4979603;28;20509;-63
2021/08/08 06:35:20;;;;;;;8.95;5.10;;;;;;;19.78;86.50;97957.81;4971262;28;20027;-64
2021/08/08 06:37:46;;;;;;;11.90;5.50;;;;;;;19.56;86.26;97918.66;4976568;28;20050;-63
2021/08/08 06:40:12;;;;;;;7.85;4.72;;;;;;;19.94;86.01;97973.03;4965114;28;20045;-63
2021/08/08 06:42:38;;;;;;;9.63;5.07;;;;;;;19.90;85.72;97963.97;4968669;28;20038;-63
2021/08/08 06:45:04;;;;;;;8.95;4.65;;;;;;;19.95;85.69;97964.13;4973638;28;20037;-63
2021/08/08 06:47:30;;;;;;;9.35;4.95;;;;;;;19.80;85.82;97937.28;4989841;28;20466;-62
2021/08/08 06:49:55;;;;;;;8.50;4.60;;;;;;;19.78;85.33;97936.72;4978004;28;20030;-63
2021/08/08 06:52:20;;;;;;;8.02;4.60;;;;;;;20.08;85.74;97978.97;4975904;28;20524;-63
2021/08/08 06:54:46;;;;;;;9.32;5.00;;;;;;;19.86;84.88;97925.03;4981511;28;20029;-63
2021/08/08 06:57:11;;;;;;;9.60;4.60;;;;;;;19.76;85.00;97926.38;4979646;28;20545;-63
2021/08/08 06:59:40;;;;;;;9.93;5.25;;;;;;;19.86;85.51;97927.69;4985243;28;20038;-63
2021/08/08 07:02:06;;;;;;;9.27;5.20;;;;;;;19.86;85.11;97933.78;4976523;28;20073;-63
2021/08/08 07:04:31;;;;;;;8.52;4.28;;;;;;;20.06;85.36;97970.50;4975653;28;20030;-63
2021/08/08 07:06:56;;;;;;;7.18;5.10;;;;;;;20.05;85.27;97973.34;4993670;28;20846;-61
2021/08/08 07:09:22;;;;;;;8.10;4.45;;;;;;;20.09;85.24;97991.13;4976055;28;20347;-63
2021/08/08 07:11:47;;;;;;;8.73;4.55;;;;;;;20.19;84.70;97987.16;4977881;28;20098;-63
2021/08/08 07:14:13;;;;;;;8.80;4.50;;;;;;;20.11;85.04;97989.06;4982743;28;20030;-63
2021/08/08 07:16:38;;;;;;;7.68;4.65;;;;;;;20.23;84.28;97986.50;4977234;28;20022;-63
2021/08/08 07:19:04;;;;;;;7.22;4.25;;;;;;;20.22;83.81;97994.66;4978275;28;20807;-63
2021/08/08 07:21:29;;;;;;;7.53;4.45;;;;;;;20.21;84.17;97995.69;4978531;28;20346;-63
2021/08/08 07:23:54;;;;;;;7.68;4.15;;;;;;;20.27;83.18;98000.88;4974878;28;20031;-63
2021/08/08 07:26:20;;;;;;;10.65;4.78;;;;;;;20.27;83.39;97984.25;4991738;28;20388;-63
2021/08/08 07:28:45;;;;;;;7.10;4.20;;;;;;;20.46;82.87;97996.38;4982935;28;20044;-63
2021/08/08 07:31:11;;;;;;;10.07;4.25;;;;;;;20.50;81.08;98002.81;4976588;28;20070;-63
2021/08/08 07:33:36;;;;;;;8.82;4.60;;;;;;;20.57;82.00;98004.56;4989635;28;20057;-63
2021/08/08 07:36:02;;;;;;;7.72;4.10;;;;;;;20.57;82.06;98001.91;4968687;28;20045;-63
2021/08/08 07:38:27;;;;;;;8.80;5.03;;;;;;;20.65;80.30;98002.44;4980259;28;20038;-63
2021/08/08 07:40:53;;;;;;;12.13;5.10;;;;;;;20.63;80.50;98009.00;4974869;28;20037;-62
2021/08/08 07:43:19;;;;;;;7.93;4.22;;;;;;;20.39;81.33;97963.16;4975147;28;20446;-63
2021/08/08 07:45:44;;;;;;;8.18;4.00;;;;;;;20.59;82.23;97992.75;4974139;28;20058;-63
2021/08/08 07:48:10;;;;;;;8.52;4.13;;;;;;;20.60;82.15;97999.63;4973581;28;20034;-63
2021/08/08 07:50:35;;;;;;;8.85;3.92;;;;;;;20.64;82.03;98005.31;4976073;28;20377;-64
2021/08/08 07:53:00;;;;;;;6.35;3.63;;;;;;;20.59;81.86;98003.31;4988908;28;20027;-63
2021/08/08 07:55:26;;;;;;;6.97;3.85;;;;;;;20.51;82.55;98011.53;4971611;28;20122;-63
2021/08/08 07:57:52;;;;;;;7.75;3.90;;;;;;;20.60;81.30;97988.28;4977546;28;20030;-63
2021/08/08 08:00:17;;;;;;;7.03;3.83;;;;;;;20.64;81.54;98007.94;4975900;28;20035;-63
2021/08/08 08:02:43;;;;;;;8.57;4.13;;;;;;;20.83;80.80;98006.88;4974640;28;20207;-62
2021/08/08 08:05:08;;;;;;;8.30;4.63;;;;;;;20.92;80.97;98010.00;4980174;28;20046;-63
2021/08/08 08:07:34;;;;;;;5.80;3.67;;;;;;;20.78;79.89;98003.28;4969103;28;20508;-63
2021/08/08 08:09:59;;;;;;;8.00;3.35;;;;;;;20.83;81.04;98014.78;4973480;28;20574;-64
2021/08/08 08:12:25;;;;;;;9.40;3.60;;;;;;;20.61;79.61;97977.53;4972412;28;20081;-63
2021/08/08 08:14:50;;;;;;;7.05;4.05;;;;;;;20.92;80.50;98015.28;4966968;28;20045;-63
2021/08/08 08:17:15;;;;;;;10.05;4.18;;;;;;;20.88;80.34;98025.50;4976273;28;20615;-63
2021/08/08 08:19:41;;;;;;;7.40;3.83;;;;;;;20.88;80.14;98028.16;4975127;28;20513;-63
2021/08/08 08:22:06;;;;;;;6.60;3.72;;;;;;;20.93;80.70;98022.97;4975730;28;20066;-63
2021/08/08 08:24:32;;;;;;;9.15;3.85;;;;;;;21.24;78.72;98028.22;4968840;28;20042;-64
2021/08/08 08:26:57;;;;;;;7.57;3.72;;;;;;;21.31;77.54;97978.69;4967255;28;20031;-63
2021/08/08 08:29:23;;;;;;;7.97;3.97;;;;;;;21.22;77.29;98025.78;4973828;28;20158;-64
2021/08/08 08:31:48;;;;;;;8.35;3.70;;;;;;;21.06;78.50;98018.53;4968493;28;20035;-63
2021/08/08 08:34:13;;;;;;;6.05;3.40;;;;;;;20.87;78.48;98010.66;4978171;28;20142;-63
2021/08/08 08:36:39;;;;;;;5.93;3.53;;;;;;;20.97;79.42;98017.25;4974508;28;20065;-63
2021/08/08 08:39:05;;;;;;;8.65;4.10;;;;;;;20.72;79.63;97975.94;4970707;28;20037;-63
2021/08/08 08:41:32;;;;;;;8.88;4.35;;;;;;;20.85;80.23;98023.31;4984012;28;20034;-64
2021/08/08 08:43:59;;;;;;;5.63;3.67;;;;;;;20.90;78.28;98030.53;4974684;28;20039;-63
2021/08/08 08:46:25;;;;;;;6.65;3.45;;;;;;;20.89;78.82;98028.94;4972441;28;20033;-63
2021/08/08 08:48:53;;;;;;;8.18;3.95;;;;;;;20.99;78.59;98036.31;4969102;28;20142;-64
2021/08/08 08:51:19;;;;;;;7.20;3.97;;;;;;;20.91;78.78;98005.72;4964440;28;20031;-63
2021/08/08 08:53:45;;;;;;;6.90;3.88;;;;;;;21.28;77.98;98040.75;4971013;28;20710;-64
2021/08/08 08:56:10;;;;;;;8.85;4.20;;;;;;;21.50;77.63;98025.16;4972496;28;20031;-63
2021/08/08 08:58:36;;;;;;;6.63;3.72;;;;;;;21.35;77.93;98008.91;4974504;28;20026;-63
2021/08/08 09:01:01;;;;;;;9.73;3.97;;;;;;;21.30;78.41;98012.25;4963824;28;20046;-63
2021/08/08 09:03:28;;;;;;;8.30;3.95;;;;;;;21.98;74.74;97988.88;4966484;28;20038;-63
2021/08/08 09:05:53;;;;;;;5.40;3.53;;;;;;;22.30;74.67;98035.34;4964175;28;20034;-64
2021/08/08 09:08:19;;;;;;;6.90;4.00;;;;;;;22.10;74.93;98036.50;4970487;28;20105;-64
2021/08/08 09:10:44;;;;;;;8.82;4.10;;;;;;;22.73;72.55;98023.44;4968086;28;20728;-63
2021/08/08 09:13:10;;;;;;;10.50;4.10;;;;;;;23.52;70.50;98034.03;4974590;28;20042;-64
2021/08/08 09:15:41;;;;;;;8.15;3.65;;;;;;;22.86;72.58;98036.41;4975696;28;20027;-60
2021/08/08 09:18:25;;;;;;;7.70;3.83;;;;;;;23.33;70.74;98036.16;4987975;28;20478;-61
2021/08/08 09:20:52;;;;;;;7.47;4.00;;;;;;;24.09;69.39;98011.75;4952366;28;20173;-61
2021/08/08 09:23:17;;;;;;;7.43;3.67;;;;;;;24.47;66.94;97972.06;4974684;28;20037;-60
2021/08/08 09:25:54;;;;;;;9.45;3.80;;;;;;;24.49;67.09;97981.38;4972670;28;20030;-61
2021/08/08 09:28:27;;;;;;;6.97;3.67;;;;;;;24.69;68.03;98006.59;4993732;28;20081;-61
2021/08/08 09:30:53;;;;;;;6.60;3.90;;;;;;;24.49;67.00;97967.28;4975064;28;20031;-60
2021/08/08 09:33:18;;;;;;;7.72;4.35;;;;;;;24.58;65.95;97988.94;4978705;28;20041;-60
2021/08/08 09:35:44;;;;;;;8.25;4.32;;;;;;;24.44;66.14;98007.09;4993466;28;20034;-60
2021/08/08 09:38:12;;;;;;;10.30;4.05;;;;;;;24.44;65.76;98012.41;4981257;28;20041;-61
2021/08/08 09:40:42;;;;;;;7.35;3.95;;;;;;;24.46;66.06;98019.09;4974238;28;20034;-61
2021/08/08 09:43:08;;;;;;;10.07;3.70;;;;;;;24.48;65.31;98024.16;4975000;28;20026;-61
2021/08/08 09:45:35;;;;;;;8.40;4.28;;;;;;;24.42;63.89;98023.28;4979517;28;20034;-63
2021/08/08 09:48:01;;;;;;;9.20;4.40;;;;;;;24.42;64.80;98027.81;4958142;28;20073;-62
2021/08/08 09:50:29;;;;;;;10.57;4.25;;;;;;;24.40;64.48;98038.66;4973968;28;20641;-61
2021/08/08 09:52:59;;;;;;;8.68;4.13;;;;;;;24.49;64.51;98036.38;4975084;28;20402;-61
2021/08/08 09:55:37;;;;;;;11.27;4.05;;;;;;;24.29;63.85;97999.75;4979599;28;20033;-61
2021/08/08 09:58:24;;;;;;;9.25;3.70;;;;;;;24.59;64.76;98051.66;4973175;28;20038;-59
2021/08/08 10:00:50;;;;;;;8.63;4.20;;;;;;;24.49;64.96;98039.84;4966664;28;20072;-61
2021/08/08 10:03:17;;;;;;;8.98;4.63;;;;;;;24.35;64.58;98027.97;4968408;28;20041;-61
2021/08/08 10:05:44;;;;;;;9.30;4.50;;;;;;;24.45;64.48;98046.69;4971503;28;20690;-61
2021/08/08 10:08:17;;;;;;;10.02;4.50;;;;;;;24.48;64.56;98051.53;4975699;28;20116;-61
2021/08/08 10:10:45;;;;;;;12.75;4.50;;;;;;;24.49;65.40;98047.00;4971526;28;20030;-60
2021/08/08 10:13:32;;;;;;;12.70;4.63;;;;;;;24.58;65.31;98050.06;4973923;28;20450;-61
2021/08/08 10:15:59;;;;;;;8.98;4.60;;;;;;;24.77;63.49;98050.53;4973970;28;20029;-61
2021/08/08 10:18:29;;;;;;;9.45;4.40;;;;;;;24.64;64.04;98041.91;4968135;28;20042;-61
2021/08/08 10:20:54;;;;;;;10.45;4.07;;;;;;;24.65;64.83;98035.53;4980999;28;20456;-61
2021/08/08 10:23:21;;;;;;;12.20;4.78;;;;;;;24.40;64.32;98006.78;4973581;28;20041;-61
2021/08/08 10:25:50;;;;;;;12.52;4.82;;;;;;;24.54;64.16;98036.47;4968228;28;20250;-61
2021/08/08 10:28:16;;;;;;;10.32;4.63;;;;;;;24.73;63.61;98047.56;4974192;28;20034;-61
2021/08/08 10:30:42;;;;;;;10.20;4.47;;;;;;;24.74;62.60;98038.53;4990854;28;20054;-60
2021/08/08 10:33:08;;;;;;;13.20;4.88;;;;;;;24.51;62.57;97997.06;4972960;28;20030;-61
2021/08/08 10:35:37;;;;;;;11.80;4.60;;;;;;;24.71;62.97;98018.56;4981063;28;20052;-61
2021/08/08 10:38:02;;;;;;;12.57;4.70;;;;;;;24.64;62.61;98033.94;4977718;28;20038;-61
2021/08/08 10:40:31;;;;;;;8.90;4.78;;;;;;;24.47;62.96;98020.69;4977785;28;20037;-60
2021/08/08 10:42:57;;;;;;;9.07;4.28;;;;;;;24.54;63.36;98039.13;4973565;28;20141;-60
2021/08/08 10:45:28;;;;;;;7.57;4.18;;;;;;;24.66;63.50;98034.50;4980826;28;20026;-60
2021/08/08 10:48:05;;;;;;;11.30;4.75;;;;;;;24.78;62.49;98031.66;4976708;28;20026;-60
2021/08/08 10:50:45;;;;;;;8.80;4.70;;;;;;;24.76;62.17;98025.81;4964966;28;20200;-60
2021/08/08 10:53:24;;;;;;;11.18;4.57;;;;;;;24.87;62.32;98027.50;4958099;28;20030;-62
2021/08/08 10:55:50;;;;;;;;;;;;;;;25.06;64.10;98025.28;4979811;28;20081;-60
2021/08/08 10:58:16;;;;;;;11.10;4.50;;;;;;;25.10;61.42;98014.94;4974041;28;20036;-61
2021/08/08 11:00:43;;;;;;;8.77;4.22;;;;;;;25.18;60.84;98005.69;4981178;28;20166;-61
2021/08/08 11:03:14;;;;;;;9.88;3.92;;;;;;;25.11;60.75;98013.88;4991908;28;20057;-61
2021/08/08 11:05:40;;;;;;;9.35;4.15;;;;;;;24.86;59.27;97995.84;4969710;28;20413;-61
2021/08/08 11:08:08;;;;;;;7.85;3.95;;;;;;;25.14;60.87;98019.50;4977342;28;20487;-61
2021/08/08 11:10:36;;;;;;;9.63;3.85;;;;;;;25.07;61.03;97989.66;4976310;28;20027;-60
2021/08/08 11:13:01;;;;;;;9.43;4.20;;;;;;;25.38;61.25;98026.38;4978462;28;20069;-61
2021/08/08 11:15:34;;;;;;;11.13;4.32;;;;;;;25.45;60.18;98008.31;4962201;28;20035;-60
2021/08/08 11:18:00;;;;;;;9.75;4.25;;;;;;;25.42;57.70;98025.56;4978268;28;20088;-61
2021/08/08 11:20:29;;;;;;;7.43;3.92;;;;;;;25.25;58.16;98028.38;4984046;28;20466;-61
2021/08/08 11:23:02;;;;;;;7.75;3.85;;;;;;;25.31;57.40;98026.56;4977513;28;20030;-61
2021/08/08 11:25:41;;;;;;;7.45;3.50;;;;;;;25.20;57.36;97990.28;4989995;28;20034;-61
2021/08/08 11:28:07;;;;;;;8.38;3.78;;;;;;;25.60;56.71;98034.22;4960339;28;20149;-61